Time;durP1;ratioP1;P1;durP2;ratioP2;P2;SDS_P1;SDS_P2;PMS_P1;PMS_P2;Temp;Humidity;BMP_temperature;BMP_pressure;BME280_temperature;BME280_humidity;BME280_pressure;Samples;Min_cycle;Max_cycle;Signal;HPM_P1;HPM_P2
2022/06/07 00:02:14;;;;;;;;;1.00;1.00;;;;;-143.57;100.00;65101.44;5099293;27;45316;-56
2022/06/07 00:04:40;;;;;;;;;4.25;1.00;;;;;-143.57;100.00;65101.44;5098831;27;46182;-57
2022/06/07 00:07:07;;;;;;;;;2.00;1.00;;;;;-143.57;100.00;65101.44;5098885;27;45588;-57
2022/06/07 00:09:33;;;;;;;;;1.00;1.00;;;;;-143.57;100.00;65101.44;5099150;27;45370;-56
2022/06/07 00:11:58;;;;;;;;;1.75;1.00;;;;;-143.57;100.00;65101.44;5099161;27;45327;-56
2022/06/07 00:14:24;;;;;;;;;1.00;1.00;;;;;-143.57;100.00;65101.44;5098718;27;46175;-55
2022/06/07 00:16:50;;;;;;;;;1.00;1.00;;;;;-143.57;100.00;65101.44;5098452;27;45548;-56
2022/06/07 00:19:16;;;;;;;;;1.00;1.00;;;;;-143.57;100.00;65101.44;5099004;27;45888;-54
2022/06/07 00:21:42;;;;;;;;;0.00;0.00;;;;;-143.57;100.00;65101.44;5099172;27;45380;-57
2022/06/07 00:24:07;;;;;;;;;0.50;0.50;;;;;-143.57;100.00;65101.44;5080307;27;46944;-58
2022/06/07 00:26:37;;;;;;;;;2.00;2.00;;;;;-143.57;100.00;65101.44;5098342;27;45237;-56
2022/06/07 00:29:03;;;;;;;;;1.00;1.00;;;;;-143.57;100.00;65101.44;5098792;27;45351;-58
2022/06/07 00:31:29;;;;;;;;;1.75;1.75;;;;;-143.57;100.00;65101.44;5098748;27;45430;-57
2022/06/07 00:33:55;;;;;;;;;1.00;1.00;;;;;-143.57;100.00;65101.44;5098431;27;47291;-57
2022/06/07 00:36:21;;;;;;;;;2.00;1.25;;;;;-143.57;100.00;65101.44;5098625;27;45302;-55
2022/06/07 00:38:47;;;;;;;;;8.00;6.25;;;;;-143.57;100.00;65101.44;5098284;27;45220;-54
2022/06/07 00:41:13;;;;;;;;;2.50;2.50;;;;;-143.57;100.00;65101.44;5098680;27;45398;-55
2022/06/07 00:43:41;;;;;;;;;2.00;1.25;;;;;-143.57;100.00;65101.44;5098213;27;45962;-57
2022/06/07 00:46:09;;;;;;;;;0.00;0.00;;;;;-143.57;100.00;65101.44;5098183;27;45378;-57
2022/06/07 00:48:36;;;;;;;;;0.50;0.50;;;;;-143.57;100.00;65101.44;5098493;27;45453;-57
2022/06/07 00:51:10;;;;;;;;;1.00;1.00;;;;;-143.57;100.00;65101.44;5098693;27;45216;-55
2022/06/07 00:53:37;;;;;;;;;1.00;1.00;;;;;-143.57;100.00;65101.44;5097976;27;46205;-55
2022/06/07 00:56:05;;;;;;;;;1.50;1.00;;;;;-143.57;100.00;65101.44;5098032;27;45219;-56
2022/06/07 00:58:32;;;;;;;;;1.00;1.00;;;;;-143.57;100.00;65101.44;5098103;27;45452;-57
2022/06/07 01:00:59;;;;;;;;;1.00;1.00;;;;;-143.57;100.00;65101.44;5079957;27;45365;-56
2022/06/07 01:03:25;;;;;;;;;1.00;1.00;;;;;-143.57;100.00;65101.44;5097889;27;46432;-55
2022/06/07 01:05:52;;;;;;;;;1.50;1.50;;;;;-143.57;100.00;65101.44;5097807;27;45329;-56
2022/06/07 01:11:01;;;;;;;;;2.00;2.00;;;;;-143.57;100.00;65101.44;5098036;27;45220;-56
2022/06/07 01:13:32;;;;;;;;;1.00;1.00;;;;;-143.57;100.00;65101.44;5097802;27;46152;-56
2022/06/07 01:16:07;;;;;;;;;2.00;2.00;;;;;-143.57;100.00;65101.44;5097901;27;45348;-57
2022/06/07 01:18:32;;;;;;;;;1.00;1.00;;;;;-143.57;100.00;65101.44;5098129;27;45384;-57
2022/06/07 01:21:20;;;;;;;;;1.50;1.00;;;;;-143.57;100.00;65101.44;5098075;27;45386;-54
2022/06/07 01:23:46;;;;;;;;;0.50;0.50;;;;;-143.57;100.00;65101.44;5097474;27;46394;-55
2022/06/07 01:26:13;;;;;;;;;1.50;1.50;;;;;-143.57;100.00;65101.44;5097343;27;45668;-56
2022/06/07 01:28:39;;;;;;;;;1.25;1.00;;;;;-143.57;100.00;65101.44;5097736;27;45315;-56
2022/06/07 01:31:04;;;;;;;;;2.00;0.50;;;;;-143.57;100.00;65101.44;5097900;27;45292;-55
2022/06/07 01:33:30;;;;;;;;;1.00;1.00;;;;;-143.57;100.00;65101.44;5097477;27;46145;-56
2022/06/07 01:36:07;;;;;;;;;3.00;1.00;;;;;-143.57;100.00;65101.44;5097074;27;45411;-53
2022/06/07 01:38:34;;;;;;;;;1.00;1.00;;;;;-143.57;100.00;65101.44;5096939;27;45402;-56
2022/06/07 01:43:44;;;;;;;;;1.50;1.50;;;;;-143.57;100.00;65101.44;5097299;27;45768;-57
2022/06/07 01:46:10;;;;;;;;;2.50;2.50;;;;;-143.57;100.00;65101.44;5097245;27;45436;-56
2022/06/07 01:48:36;;;;;;;;;1.00;1.00;;;;;-143.57;100.00;65101.44;5097486;27;45406;-56
2022/06/07 01:51:03;;;;;;;;;1.50;1.00;;;;;-143.57;100.00;65101.44;5097704;27;45299;-56
2022/06/07 01:53:29;;;;;;;;;1.00;1.00;;;;;-143.57;100.00;65101.44;5097114;27;46264;-56
2022/06/07 01:56:04;;;;;;;;;0.00;0.00;;;;;-143.57;100.00;65101.44;5097160;27;45359;-57
2022/06/07 01:58:29;;;;;;;;;2.25;1.00;;;;;-143.57;100.00;65101.44;5097387;27;45484;-56
2022/06/07 02:00:55;;;;;;;;;1.00;1.00;;;;;-143.57;100.00;65101.44;5097479;27;45406;-55
2022/06/07 02:03:20;;;;;;;;;1.00;1.00;;;;;-143.57;100.00;65101.44;5097151;27;45942;-55
2022/06/07 02:06:01;;;;;;;;;2.00;2.00;;;;;-143.57;100.00;65101.44;5096735;27;45651;-55
2022/06/07 02:08:27;;;;;;;;;2.50;1.75;;;;;-143.57;100.00;65101.44;5096959;27;45418;-56
2022/06/07 02:10:53;;;;;;;;;2.00;2.00;;;;;-143.57;100.00;65101.44;5097531;27;45384;-56
2022/06/07 02:13:19;;;;;;;;;1.00;1.00;;;;;-143.57;100.00;65101.44;5096800;27;46276;-55
2022/06/07 02:15:46;;;;;;;;;1.00;1.00;;;;;-143.57;100.00;65101.44;5096528;27;45763;-57
2022/06/07 02:18:12;;;;;;;;;2.75;2.75;;;;;-143.57;100.00;65101.44;5097144;27;45484;-55
2022/06/07 02:20:38;;;;;;;;;1.00;1.00;;;;;-143.57;100.00;65101.44;5097238;27;45525;-52
2022/06/07 02:23:03;;;;;;;;;3.50;2.00;;;;;-143.57;100.00;65101.44;5097079;27;45310;-57
2022/06/07 02:25:35;;;;;;;;;1.00;1.00;;;;;-143.57;100.00;65101.44;5097084;27;45457;-55
2022/06/07 02:28:01;;;;;;;;;1.00;1.00;;;;;-143.57;100.00;65101.44;5096992;27;45208;-55
2022/06/07 02:30:27;;;;;;;;;2.00;1.00;;;;;-143.57;100.00;65101.44;5078964;27;45537;-57
2022/06/07 02:32:52;;;;;;;;;3.00;2.00;;;;;-143.57;100.00;65101.44;5095784;27;46332;-56
2022/06/07 02:35:18;;;;;;;;;3.25;3.00;;;;;-143.57;100.00;65101.44;5096840;27;45461;-55
2022/06/07 02:37:44;;;;;;;;;2.00;2.00;;;;;-143.57;100.00;65101.44;5097204;27;45393;-56
2022/06/07 02:40:09;;;;;;;;;1.00;1.00;;;;;-143.57;100.00;65101.44;5097187;27;45348;-57
2022/06/07 02:42:35;;;;;;;;;5.25;2.25;;;;;-143.57;100.00;65101.44;5096787;27;46159;-55
2022/06/07 02:45:00;;;;;;;;;4.00;2.75;;;;;-143.57;100.00;65101.44;5096678;27;45370;-57
2022/06/07 02:47:26;;;;;;;;;3.00;2.00;;;;;-143.57;100.00;65101.44;5096819;27;45291;-57
2022/06/07 02:49:52;;;;;;;;;1.75;1.75;;;;;-143.57;100.00;65101.44;5099486;27;45640;-56
2022/06/07 02:52:18;;;;;;;;;3.00;2.50;;;;;-143.57;100.00;65101.44;5099598;27;46037;-55
2022/06/07 02:54:44;;;;;;;;;3.25;3.00;;;;;-143.57;100.00;65101.44;5100099;27;45378;-55
2022/06/07 02:57:09;;;;;;;;;1.00;1.00;;;;;-143.57;100.00;65101.44;5100002;27;45295;-57
2022/06/07 02:59:35;;;;;;;;;3.25;2.00;;;;;-143.57;100.00;65101.44;5100296;27;45445;-57
2022/06/07 03:02:00;;;;;;;;;3.50;3.50;;;;;-143.57;100.00;65101.44;5099835;27;47194;-53
2022/06/07 03:04:26;;;;;;;;;3.00;2.75;;;;;-143.57;100.00;65101.44;5099939;27;45235;-56
2022/06/07 03:06:51;;;;;;;;;3.00;3.00;;;;;-143.57;100.00;65101.44;5100084;27;45454;-55
2022/06/07 03:09:17;;;;;;;;;1.75;1.75;;;;;-143.57;100.00;65101.44;5100293;27;45302;-57
2022/06/07 03:11:42;;;;;;;;;5.00;3.25;;;;;-143.57;100.00;65101.44;5099512;27;46010;-54
2022/06/07 03:14:07;;;;;;;;;2.75;1.25;;;;;-143.57;100.00;65101.44;5099958;27;45327;-55
2022/06/07 03:16:33;;;;;;;;;3.50;2.00;;;;;-143.57;100.00;65101.44;5099547;27;45414;-56
2022/06/07 03:18:58;;;;;;;;;3.00;2.00;;;;;-143.57;100.00;65101.44;5100054;27;45304;-57
2022/06/07 03:21:24;;;;;;;;;4.50;3.00;;;;;-143.57;100.00;65101.44;5099671;27;45315;-58
2022/06/07 03:23:49;;;;;;;;;2.33;2.33;;;;;-143.57;100.00;65101.44;5099546;27;45315;-56
2022/06/07 03:26:16;;;;;;;;;1.75;1.50;;;;;-143.57;100.00;65101.44;5099855;27;45441;-56
2022/06/07 03:28:41;;;;;;;;;2.50;1.75;;;;;-143.57;100.00;65101.44;5099701;27;45501;-57
2022/06/07 03:31:12;;;;;;;;;2.00;2.00;;;;;-143.57;100.00;65101.44;5099612;27;47060;-55
2022/06/07 03:33:38;;;;;;;;;4.25;3.00;;;;;-143.57;100.00;65101.44;5099489;27;45412;-55
2022/06/07 03:36:10;;;;;;;;;2.00;2.00;;;;;-143.57;100.00;65101.44;5081266;27;45456;-55
2022/06/07 03:38:35;;;;;;;;;3.67;3.00;;;;;-143.57;100.00;65101.44;5099723;27;45418;-56
2022/06/07 03:41:01;;;;;;;;;4.33;3.00;;;;;-143.57;100.00;65101.44;5099228;27;46673;-56
2022/06/07 03:43:26;;;;;;;;;4.33;4.00;;;;;-143.57;100.00;65101.44;5099170;27;45240;-57
2022/06/07 03:45:52;;;;;;;;;3.00;3.00;;;;;-143.57;100.00;65101.44;5099484;27;45385;-56
2022/06/07 03:48:17;;;;;;;;;2.67;2.00;;;;;-143.57;100.00;65101.44;5099206;27;45473;-56
2022/06/07 03:50:43;;;;;;;;;2.25;1.75;;;;;-143.57;100.00;65101.44;5099114;27;46116;-56
2022/06/07 03:53:08;;;;;;;;;2.25;2.25;;;;;-143.57;100.00;65101.44;5099120;27;45414;-56
2022/06/07 03:55:34;;;;;;;;;4.50;3.00;;;;;-143.57;100.00;65101.44;5099282;27;45383;-55
2022/06/07 03:58:00;;;;;;;;;4.75;4.50;;;;;-143.57;100.00;65101.44;5099158;27;45546;-56
2022/06/07 04:00:25;;;;;;;;;3.00;2.00;;;;;-143.57;100.00;65101.44;5098617;27;45925;-57
2022/06/07 04:02:50;;;;;;;;;2.00;2.00;;;;;-143.57;100.00;65101.44;5098842;27;45429;-58
2022/06/07 04:05:16;;;;;;;;;4.00;4.00;;;;;-143.57;100.00;65101.44;5099183;27;45348;-56
2022/06/07 04:10:25;;;;;;;;;3.00;3.00;;;;;-143.57;100.00;65101.44;5098886;27;45324;-56
2022/06/07 04:12:51;;;;;;;;;3.00;3.00;;;;;-143.57;100.00;65101.44;5098718;27;45536;-56
2022/06/07 04:15:16;;;;;;;;;3.00;3.00;;;;;-143.57;100.00;65101.44;5098964;27;45276;-57
2022/06/07 04:17:41;;;;;;;;;7.00;4.00;;;;;-143.57;100.00;65101.44;5098986;27;45437;-57
2022/06/07 04:20:07;;;;;;;;;2.00;2.00;;;;;-143.57;100.00;65101.44;5098509;27;45997;-54
2022/06/07 04:22:33;;;;;;;;;2.00;2.00;;;;;-143.57;100.00;65101.44;5098583;27;45464;-56
2022/06/07 04:24:58;;;;;;;;;3.33;3.33;;;;;-143.57;100.00;65101.44;5098784;27;45279;-56
2022/06/07 04:27:24;;;;;;;;;2.00;2.00;;;;;-143.57;100.00;65101.44;5098691;27;45416;-54
2022/06/07 04:29:49;;;;;;;;;3.33;3.33;;;;;-143.57;100.00;65101.44;5098698;27;45288;-56
2022/06/07 04:32:16;;;;;;;;;3.00;3.00;;;;;-143.57;100.00;65101.44;5098602;27;45167;-56
2022/06/07 04:34:42;;;;;;;;;4.00;2.00;;;;;-143.57;100.00;65101.44;5097270;27;45449;-56
2022/06/07 04:37:07;;;;;;;;;4.00;4.00;;;;;-143.57;100.00;65101.44;5098544;27;45302;-56
2022/06/07 04:39:32;;;;;;;;;5.00;3.00;;;;;-143.57;100.00;65101.44;5098273;27;46109;-55
2022/06/07 04:41:58;;;;;;;;;4.00;4.00;;;;;-143.57;100.00;65101.44;5098587;27;45291;-55
2022/06/07 04:44:23;;;;;;;;;3.00;3.00;;;;;-143.57;100.00;65101.44;5080035;27;45470;-56
2022/06/07 04:46:49;;;;;;;;;4.00;4.00;;;;;-143.57;100.00;65101.44;5098394;27;45468;-54
2022/06/07 04:49:15;;;;;;;;;3.00;3.00;;;;;-143.57;100.00;65101.44;5098181;27;46018;-55
2022/06/07 04:51:40;;;;;;;;;3.00;3.00;;;;;-143.57;100.00;65101.44;5097781;27;45423;-56
2022/06/07 04:54:07;;;;;;;;;5.33;3.33;;;;;-143.57;100.00;65101.44;5098348;27;45482;-55
2022/06/07 04:56:35;;;;;;;;;3.67;2.67;;;;;-143.57;100.00;65101.44;5098530;27;45363;-55
2022/06/07 04:59:04;;;;;;;;;4.33;3.00;;;;;-143.57;100.00;65101.44;5097719;27;46613;-55
2022/06/07 05:01:36;;;;;;;;;4.00;4.00;;;;;-143.57;100.00;65101.44;5098225;27;45314;-53
2022/06/07 05:04:02;;;;;;;;;3.33;3.33;;;;;-143.57;100.00;65101.44;5097132;27;45302;-58
2022/06/07 05:06:31;;;;;;;;;3.67;2.67;;;;;-143.57;100.00;65101.44;5098726;27;45459;-55
2022/06/07 05:08:59;;;;;;;;;4.33;3.00;;;;;-143.57;100.00;65101.44;5097904;27;46216;-56
2022/06/07 05:11:26;;;;;;;;;4.00;2.33;;;;;-143.57;100.00;65101.44;5096966;27;45216;-55
2022/06/07 05:13:55;;;;;;;;;3.67;2.00;;;;;-143.57;100.00;65101.44;5097810;27;45233;-56
2022/06/07 05:16:21;;;;;;;;;1.00;1.00;;;;;-143.57;100.00;65101.44;5097959;27;45310;-54
2022/06/07 05:18:48;;;;;;;;;4.00;3.00;;;;;-143.57;100.00;65101.44;5096852;27;46403;-55
2022/06/07 05:21:13;;;;;;;;;2.00;2.00;;;;;-143.57;100.00;65101.44;5097646;27;45280;-55
2022/06/07 05:23:38;;;;;;;;;3.00;3.00;;;;;-143.57;100.00;65101.44;5097953;27;45666;-53
2022/06/07 05:26:07;;;;;;;;;3.00;3.00;;;;;-143.57;100.00;65101.44;5098205;27;45212;-57
2022/06/07 05:28:33;;;;;;;;;2.00;2.00;;;;;-143.57;100.00;65101.44;5097504;27;47262;-56
2022/06/07 05:30:59;;;;;;;;;3.33;3.33;;;;;-143.57;100.00;65101.44;5097608;27;45468;-55
2022/06/07 05:33:24;;;;;;;;;2.67;2.33;;;;;-143.57;100.00;65101.44;5097893;27;45334;-57
2022/06/07 05:35:50;;;;;;;;;2.00;2.00;;;;;-143.57;100.00;65101.44;5098155;27;45490;-53
2022/06/07 05:38:16;;;;;;;;;3.00;3.00;;;;;-143.57;100.00;65101.44;5097522;27;46701;-56
2022/06/07 05:40:41;;;;;;;;;3.00;3.00;;;;;-143.57;100.00;65101.44;5097582;27;45319;-56
2022/06/07 05:43:07;;;;;;;;;4.00;2.33;;;;;-143.57;100.00;65101.44;5097455;27;45477;-55
2022/06/07 05:45:32;;;;;;;;;1.33;1.33;;;;;-143.57;100.00;65101.44;5098087;27;45386;-57
2022/06/07 05:47:58;;;;;;;;;3.00;2.00;;;;;-143.57;100.00;65101.44;5096469;27;45528;-56
2022/06/07 05:50:25;;;;;;;;;2.67;2.00;;;;;-143.57;100.00;65101.44;5097506;27;45453;-57
2022/06/07 05:52:51;;;;;;;;;4.33;2.00;;;;;-143.57;100.00;65101.44;5097575;27;45361;-58
2022/06/07 05:55:17;;;;;;;;;1.00;1.00;;;;;-143.57;100.00;65101.44;5097728;27;45232;-56
2022/06/07 05:57:44;;;;;;;;;2.33;2.00;;;;;-143.57;100.00;65101.44;5096469;27;46584;-55
2022/06/07 06:00:10;;;;;;;;;2.33;2.33;;;;;-143.57;100.00;65101.44;5078983;27;45285;-55
2022/06/07 06:02:36;;;;;;;;;3.00;1.67;;;;;-143.57;100.00;65101.44;5096144;27;45306;-55
2022/06/07 06:05:01;;;;;;;;;3.00;2.00;;;;;-143.57;100.00;65101.44;5094507;27;45964;-58
2022/06/07 06:07:28;;;;;;;;;2.00;2.00;;;;;-143.57;100.00;65101.44;5096499;27;45911;-54
2022/06/07 06:12:37;;;;;;;;;2.25;2.25;;;;;-143.57;100.00;65101.44;5097460;27;45359;-56
2022/06/07 06:15:03;;;;;;;;;3.25;2.75;;;;;-143.57;100.00;65101.44;5097169;27;45298;-57
2022/06/07 06:17:30;;;;;;;;;3.00;3.00;;;;;-143.57;100.00;65101.44;5096746;27;45316;-55
2022/06/07 06:19:55;;;;;;;;;2.00;2.00;;;;;-143.57;100.00;65101.44;5097118;27;45277;-56
2022/06/07 06:22:21;;;;;;;;;4.00;1.50;;;;;-143.57;100.00;65101.44;5097394;27;45915;-56
2022/06/07 06:24:46;;;;;;;;;2.00;2.00;;;;;-143.57;100.00;65101.44;5100912;27;45204;-57
2022/06/07 06:27:12;;;;;;;;;2.00;2.00;;;;;-143.57;100.00;65101.44;5100414;27;47205;-57
2022/06/07 06:29:37;;;;;;;;;3.00;2.00;;;;;-143.57;100.00;65101.44;5100128;27;45331;-58
2022/06/07 06:32:03;;;;;;;;;1.33;1.00;;;;;-143.57;100.00;65101.44;5100998;27;45425;-55
2022/06/07 06:34:29;;;;;;;;;2.00;2.00;;;;;-143.57;100.00;65101.44;5100792;27;45318;-57
2022/06/07 06:36:56;;;;;;;;;1.67;1.67;;;;;-143.57;100.00;65101.44;5100476;27;46149;-57
2022/06/07 06:39:22;;;;;;;;;3.67;2.33;;;;;-143.57;100.00;65101.44;5100353;27;45415;-55
2022/06/07 06:41:47;;;;;;;;;3.33;3.00;;;;;-143.57;100.00;65101.44;5100491;27;45379;-57
2022/06/07 06:44:13;;;;;;;;;1.00;1.00;;;;;-143.57;100.00;65101.44;5100401;27;45244;-54
2022/06/07 06:46:41;;;;;;;;;1.00;1.00;;;;;-143.57;100.00;65101.44;5100117;27;45307;-55
2022/06/07 06:49:07;;;;;;;;;3.00;2.00;;;;;-143.57;100.00;65101.44;5100469;27;45366;-54
2022/06/07 06:51:33;;;;;;;;;2.00;2.00;;;;;-143.57;100.00;65101.44;5100235;27;45339;-57
2022/06/07 06:54:00;;;;;;;;;1.25;1.25;;;;;-143.57;100.00;65101.44;5100611;27;45417;-56
2022/06/07 06:56:29;;;;;;;;;4.00;2.25;;;;;-143.57;100.00;65101.44;5100279;27;46497;-54
2022/06/07 06:58:55;;;;;;;;;2.00;2.00;;;;;-143.57;100.00;65101.44;5100006;27;45440;-57
2022/06/07 07:01:26;;;;;;;;;3.00;2.25;;;;;-143.57;100.00;65101.44;5099337;27;45324;-56
2022/06/07 07:03:52;;;;;;;;;4.00;2.50;;;;;-143.57;100.00;65101.44;5100304;27;45395;-57
2022/06/07 07:06:19;;;;;;;;;1.50;1.00;;;;;-143.57;100.00;65101.44;5099883;27;45976;-54
2022/06/07 07:08:46;;;;;;;;;1.25;1.25;;;;;-143.57;100.00;65101.44;5099958;27;45434;-55
2022/06/07 07:11:14;;;;;;;;;3.75;1.75;;;;;-143.57;100.00;65101.44;5100149;27;45401;-56
2022/06/07 07:13:40;;;;;;;;;2.00;2.00;;;;;-143.57;100.00;65101.44;5100143;27;45452;-55
2022/06/07 07:16:11;;;;;;;;;1.00;1.00;;;;;-143.57;100.00;65101.44;5099609;27;45508;-55
2022/06/07 07:18:36;;;;;;;;;1.25;1.25;;;;;-143.57;100.00;65101.44;5099571;27;45386;-54
2022/06/07 07:21:04;;;;;;;;;2.00;2.00;;;;;-143.57;100.00;65101.44;5099822;27;45317;-55
2022/06/07 07:23:30;;;;;;;;;2.00;0.00;;;;;-143.57;100.00;65101.44;5100005;27;45424;-56
2022/06/07 07:26:07;;;;;;;;;0.50;0.50;;;;;-143.57;100.00;65101.44;5099415;27;46258;-55
2022/06/07 07:28:37;;;;;;;;;2.75;1.75;;;;;-143.57;100.00;65101.44;5099632;27;45461;-56
2022/06/07 07:31:07;;;;;;;;;2.00;1.25;;;;;-143.57;100.00;65101.44;5081357;27;45364;-55
2022/06/07 07:33:33;;;;;;;;;2.00;2.00;;;;;-143.57;100.00;65101.44;5100019;27;45493;-55
2022/06/07 07:36:04;;;;;;;;;1.25;1.25;;;;;-143.57;100.00;65101.44;5098741;27;46202;-57
2022/06/07 07:38:30;;;;;;;;;1.75;1.75;;;;;-143.57;100.00;65101.44;5099438;27;45457;-56
2022/06/07 07:40:55;;;;;;;;;1.00;1.00;;;;;-143.57;100.00;65101.44;5099547;27;45340;-55
2022/06/07 07:43:21;;;;;;;;;0.00;0.00;;;;;-143.57;100.00;65101.44;5099657;27;45309;-56
2022/06/07 07:45:50;;;;;;;;;0.00;0.00;;;;;-143.57;100.00;65101.44;5099227;27;47411;-57
2022/06/07 07:48:16;;;;;;;;;0.00;0.00;;;;;-143.57;100.00;65101.44;5099183;27;45350;-56
2022/06/07 07:50:41;;;;;;;;;2.00;0.50;;;;;-143.57;100.00;65101.44;5098868;27;45449;-54
2022/06/07 07:53:07;;;;;;;;;2.75;1.00;;;;;-143.57;100.00;65101.44;5099660;27;45484;-56
2022/06/07 07:55:32;;;;;;;;;0.00;0.00;;;;;-143.57;100.00;65101.44;5099279;27;45427;-56
2022/06/07 07:57:58;;;;;;;;;2.00;0.75;;;;;-143.57;100.00;65101.44;5099382;27;45384;-56
2022/06/07 08:00:24;;;;;;;;;0.75;0.75;;;;;-143.57;100.00;65101.44;5099118;27;45437;-57
2022/06/07 08:02:49;;;;;;;;;1.50;1.50;;;;;-143.57;100.00;65101.44;5099327;27;45284;-53
2022/06/07 08:05:15;;;;;;;;;4.00;1.00;;;;;-143.57;100.00;65101.44;5098982;27;46328;-57
2022/06/07 08:07:40;;;;;;;;;1.75;0.00;;;;;-143.57;100.00;65101.44;5080709;27;45447;-56
2022/06/07 08:10:06;;;;;;;;;1.00;1.00;;;;;-143.57;100.00;65101.44;5099110;27;45410;-56
2022/06/07 08:12:32;;;;;;;;;2.75;1.75;;;;;-143.57;100.00;65101.44;5099335;27;45418;-57
2022/06/07 08:14:58;;;;;;;;;1.50;1.50;;;;;-143.57;100.00;65101.44;5098885;27;45411;-56
2022/06/07 08:17:28;;;;;;;;;2.00;2.00;;;;;-143.57;100.00;65101.44;5098614;27;45226;-57
2022/06/07 08:19:53;;;;;;;;;1.00;1.00;;;;;-143.57;100.00;65101.44;5098941;27;45335;-57
2022/06/07 08:22:20;;;;;;;;;3.00;1.00;;;;;-143.57;100.00;65101.44;5098993;27;45429;-55
2022/06/07 08:24:46;;;;;;;;;1.50;1.50;;;;;-143.57;100.00;65101.44;5098646;27;46918;-57
2022/06/07 08:27:11;;;;;;;;;3.00;1.00;;;;;-143.57;100.00;65101.44;5098574;27;45330;-56
2022/06/07 08:29:38;;;;;;;;;3.50;2.00;;;;;-143.57;100.00;65101.44;5080336;27;45811;-56
2022/06/07 08:32:04;;;;;;;;;2.00;1.25;;;;;-143.57;100.00;65101.44;5098837;27;45284;-56
2022/06/07 08:39:57;;;;;;;;;0.40;0.40;;;;;-143.57;100.00;65101.44;5098685;27;45461;-56
2022/06/07 08:42:32;;;;;;;;;1.00;1.00;;;;;-143.57;100.00;65101.44;5098651;27;45420;-55
2022/06/07 08:45:01;;;;;;;;;1.00;1.00;;;;;-143.57;100.00;65101.44;5098108;27;45612;-56
2022/06/07 08:47:38;;;;;;;;;3.00;1.00;;;;;-143.57;100.00;65101.44;5097195;27;45258;-54
2022/06/07 08:50:13;;;;;;;;;1.00;1.00;;;;;-143.57;100.00;65101.44;5098527;27;45255;-56
2022/06/07 08:52:39;;;;;;;;;2.40;0.80;;;;;-143.57;100.00;65101.44;5098426;27;45374;-54
2022/06/07 08:55:19;;;;;;;;;0.60;0.60;;;;;-143.57;100.00;65101.44;5098221;27;46135;-55
2022/06/07 08:57:53;;;;;;;;;1.80;1.20;;;;;-143.57;100.00;65101.44;5098106;27;45285;-56
2022/06/07 09:00:23;;;;;;;;;0.60;0.60;;;;;-143.57;100.00;65101.44;5114232;27;45375;-56
2022/06/07 09:03:00;;;;;;;;;1.40;1.40;;;;;-143.57;100.00;65101.44;5098367;27;45453;-55
2022/06/07 09:05:26;;;;;;;;;0.60;0.60;;;;;-143.57;100.00;65101.44;5098186;27;47277;-55
2022/06/07 09:07:52;;;;;;;;;0.80;0.80;;;;;-143.57;100.00;65101.44;5097931;27;45484;-53
2022/06/07 09:13:16;;;;;;;;;2.80;0.80;;;;;-143.57;100.00;65101.44;5098264;27;45314;-55
2022/06/07 09:15:42;;;;;;;;;4.00;1.80;;;;;-143.57;100.00;65101.44;5097728;27;45359;-56
2022/06/07 09:18:11;;;;;;;;;1.20;1.00;;;;;-143.57;100.00;65101.44;5079573;27;45525;-56
2022/06/07 09:20:43;;;;;;;;;1.00;1.00;;;;;-143.57;100.00;65101.44;5098036;27;45433;-55
2022/06/07 09:23:24;;;;;;;;;0.00;0.00;;;;;-143.57;100.00;65101.44;5098123;27;45380;-56
2022/06/07 09:25:52;;;;;;;;;0.00;0.00;;;;;-143.57;100.00;65101.44;5097742;27;45506;-56
2022/06/07 09:28:27;;;;;;;;;0.00;0.00;;;;;-143.57;100.00;65101.44;5097786;27;45465;-56
2022/06/07 09:31:06;;;;;;;;;0.20;0.20;;;;;-143.57;100.00;65101.44;5097585;27;45397;-55
2022/06/07 09:33:35;;;;;;;;;2.00;0.00;;;;;-143.57;100.00;65101.44;5098033;27;45468;-54
2022/06/07 09:36:05;;;;;;;;;0.00;0.00;;;;;-143.57;100.00;65101.44;5097793;27;45336;-55
2022/06/07 09:38:36;;;;;;;;;0.20;0.00;;;;;-143.57;100.00;65101.44;5097599;27;45432;-55
2022/06/07 09:44:33;;;;;;;;;0.80;0.80;;;;;-143.57;100.00;65101.44;5098018;27;45372;-55
2022/06/07 09:47:02;;;;;;;;;0.00;0.00;;;;;-143.57;100.00;65101.44;5034128;28;48140;-55
2022/06/07 09:49:50;;;;;;;;;0.00;0.00;;;;;-143.57;100.00;65101.44;5034544;28;45617;-56
2022/06/07 09:52:43;;;;;;;;;0.00;0.00;;;;;-143.57;100.00;65101.44;5034540;28;45332;-57
2022/06/07 09:55:29;;;;;;;;;0.00;0.00;;;;;-143.57;100.00;65101.44;5034788;28;45404;-56
2022/06/07 09:58:03;;;;;;;;;1.00;0.00;;;;;-143.57;100.00;65101.44;5035265;28;45324;-56
2022/06/07 10:00:49;;;;;;;;;1.60;0.60;;;;;-143.57;100.00;65101.44;5037894;28;45545;-56
2022/06/07 10:03:33;;;;;;;;;0.00;0.00;;;;;-143.57;100.00;65101.44;5038231;28;45399;-56
2022/06/07 10:06:31;;;;;;;;;2.40;1.80;;;;;-143.57;100.00;65101.44;5038232;28;45468;-56
2022/06/07 10:09:24;;;;;;;;;1.00;1.00;;;;;-143.57;100.00;65101.44;4997915;28;47202;-55
2022/06/07 10:12:16;;;;;;;;;0.00;0.00;;;;;-143.57;100.00;65101.44;4997885;28;45575;-54
2022/06/07 10:14:54;;;;;;;;;0.00;0.00;;;;;-143.57;100.00;65101.44;4998116;28;45586;-54
2022/06/07 10:17:47;;;;;;;;;0.00;0.00;;;;;-143.57;100.00;65101.44;4997857;28;45634;-52
2022/06/07 10:20:46;;;;;;;;;0.00;0.00;;;;;-143.57;100.00;65101.44;4997689;28;46999;-56
2022/06/07 10:23:38;;;;;;;;;0.00;0.00;;;;;-143.57;100.00;65101.44;5005565;28;45465;-56
2022/06/07 10:26:19;;;;;;;;;0.00;0.00;;;;;-143.57;100.00;65101.44;5037589;28;45418;-54
2022/06/07 10:29:06;;;;;;;;;0.20;0.20;;;;;-143.57;100.00;65101.44;5037759;28;45405;-54
2022/06/07 10:31:40;;;;;;;;;0.00;0.00;;;;;-143.57;100.00;65101.44;5037272;28;46326;-54
2022/06/07 10:34:17;;;;;;;;;0.00;0.00;;;;;-143.57;100.00;65101.44;5037498;28;45358;-55
2022/06/07 10:37:05;;;;;;;;;0.00;0.00;;;;;-143.57;100.00;65101.44;5037679;28;45465;-55
2022/06/07 10:39:35;;;;;;;;;0.00;0.00;;;;;-143.57;100.00;65101.44;5037941;28;45408;-54
2022/06/07 10:42:36;;;;;;;;;0.00;0.00;;;;;-143.57;100.00;65101.44;5037203;28;46631;-54
2022/06/07 10:45:21;;;;;;;;;0.00;0.00;;;;;-143.57;100.00;65101.44;5001167;28;45576;-54
2022/06/07 10:47:53;;;;;;;;;0.00;0.00;;;;;-143.57;100.00;65101.44;5016411;28;45468;-55
2022/06/07 10:50:22;;;;;;;;;1.80;0.60;;;;;-143.57;100.00;65101.44;5012307;28;45575;-56
2022/06/07 10:53:00;;;;;;;;;0.60;0.60;;;;;-143.57;100.00;65101.44;5014524;28;47220;-56
2022/06/07 10:55:39;;;;;;;;;0.80;0.00;;;;;-143.57;100.00;65101.44;5012373;28;45536;-55
2022/06/07 10:58:44;;;;;;;;;0.00;0.00;;;;;-143.57;100.00;65101.44;5013971;28;45545;-54
2022/06/07 11:01:22;;;;;;;;;0.20;0.20;;;;;-143.57;100.00;65101.44;5010278;28;45579;-53
2022/06/07 11:04:11;;;;;;;;;0.00;0.00;;;;;-143.57;100.00;65101.44;5012316;28;46158;-54
2022/06/07 11:09:43;;;;;;;;;0.00;0.00;;;;;-143.57;100.00;65101.44;5011228;28;45441;-55
2022/06/07 11:12:24;;;;;;;;;1.00;1.00;;;;;-143.57;100.00;65101.44;5012156;28;45471;-52
2022/06/07 11:15:05;;;;;;;;;0.00;0.00;;;;;-143.57;100.00;65101.44;5011497;28;46127;-56
2022/06/07 11:17:37;;;;;;;;;0.00;0.00;;;;;-143.57;100.00;65101.44;5010842;28;45603;-54
2022/06/07 11:20:19;;;;;;;;;0.00;0.00;;;;;-143.57;100.00;65101.44;5011592;28;45587;-56
2022/06/07 11:23:22;;;;;;;;;0.00;0.00;;;;;-143.57;100.00;65101.44;5082771;27;45580;-55
2022/06/07 11:26:04;;;;;;;;;1.00;1.00;;;;;-143.57;100.00;65101.44;5094832;27;46237;-55
2022/06/07 11:28:38;;;;;;;;;1.00;0.00;;;;;-143.57;100.00;65101.44;5094809;27;45684;-53
2022/06/07 11:31:25;;;;;;;;;0.00;0.00;;;;;-143.57;100.00;65101.44;5094977;27;45511;-54
2022/06/07 11:33:50;;;;;;;;;0.00;0.00;;;;;-143.57;100.00;65101.44;5092693;27;45525;-55
2022/06/07 11:36:25;;;;;;;;;0.00;0.00;;;;;-143.57;100.00;65101.44;5094823;27;46125;-53
2022/06/07 11:38:53;;;;;;;;;0.00;0.00;;;;;-143.57;100.00;65101.44;5094712;27;45496;-54
2022/06/07 11:41:42;;;;;;;;;0.00;0.00;;;;;-143.57;100.00;65101.44;5094363;27;45523;-54
2022/06/07 11:44:07;;;;;;;;;2.00;0.00;;;;;-143.57;100.00;65101.44;5092780;27;45427;-52
2022/06/07 11:46:33;;;;;;;;;0.00;0.00;;;;;-143.57;100.00;65101.44;5092880;27;46321;-52